| Date | Time | Temp. (oF) | Dew Point (oF) | Rel. Hum. (%) | Press. (in.) | Wind Dir. | Wind Speed (mph) | Hourly Rainfall (in.) |
|
|---|---|---|---|---|---|---|---|---|---|
| 1 | 05/06 | 00:00 | 55 | 49 | 83 | 30.01 | SW | 0 | 0.00 |
| 2 | 05/05 | 23:00 | 57 | 50 | 79 | 30.00 | SW | 1 | 0.00 |
| 3 | 05/05 | 22:00 | 59 | 50 | 74 | 30.00 | SSW | 2 | 0.00 |
| 4 | 05/05 | 21:00 | 59 | 44 | 59 | 29.99 | SSW | 2 | 0.00 |
| 5 | 05/05 | 20:00 | 66 | 37 | 35 | 29.97 | NW | 0 | 0.00 |
| 6 | 05/05 | 19:00 | 71 | 37 | 30 | 29.94 | N | 3 | 0.00 |
| 7 | 05/05 | 18:00 | 71 | 37 | 30 | 29.94 | WNW | 1 | 0.00 |
| 8 | 05/05 | 17:00 | 71 | 37 | 30 | 29.94 | WNW | 3 | 0.00 |
| 9 | 05/05 | 16:00 | 70 | 40 | 35 | 29.98 | SW | 4 | 0.00 |
| 10 | 05/05 | 15:00 | 70 | 42 | 37 | 30.02 | NNW | 5 | 0.00 |
| 11 | 05/05 | 14:00 | 69 | 41 | 37 | 30.05 | N | 4 | 0.00 |
| 12 | 05/05 | 13:00 | 68 | 42 | 40 | 30.08 | SSW | 8 | 0.00 |
| 13 | 05/05 | 12:00 | 65 | 39 | 40 | 30.10 | S | 4 | 0.00 |
| 14 | 05/05 | 11:00 | 64 | 44 | 49 | 30.11 | NE | 4 | 0.00 |
| 15 | 05/05 | 10:00 | 63 | 46 | 54 | 30.12 | ESE | 7 | 0.00 |
| 16 | 05/05 | 09:00 | 61 | 45 | 56 | 30.12 | ESE | 3 | 0.00 |
| 17 | 05/05 | 08:00 | 54 | 49 | 84 | 30.12 | NW | 0 | 0.00 |
| 18 | 05/05 | 07:00 | 42 | 41 | 100 | 30.10 | NW | 0 | 0.00 |
| 19 | 05/05 | 06:00 | 40 | 40 | 100 | 30.09 | NW | 0 | 0.00 |
| 20 | 05/05 | 05:00 | 42 | 41 | 99 | 30.08 | NW | 0 | 0.00 |
| 21 | 05/05 | 04:00 | 43 | 42 | 98 | 30.08 | NW | 0 | 0.00 |
| 22 | 05/05 | 03:00 | 45 | 43 | 96 | 30.07 | NNW | 0 | 0.00 |
| 23 | 05/05 | 02:00 | 45 | 43 | 94 | 30.07 | NNW | 0 | 0.00 |
| 24 | 05/05 | 01:00 | 46 | 42 | 87 | 30.07 | NNW | 0 | 0.00 |